This is the latest recevied weather packets stored in our database for station/object SP4LIN-15. If no packets are shown the sender has not sent any weather packets the latest 10 day(s).
| Time | Temp. | Humidity | Pressure | Rain* | Wind** | Luminosity | Snow |
|---|---|---|---|---|---|---|---|
| 1777914546 | 17.78° C | 65% | 1003.6 hPa | 0 mm | - | - | - |
| 1777913646 | 18.33° C | 64% | 1003.3 hPa | 0 mm | - | - | - |
| 1777912746 | 18.89° C | 62% | 1003.1 hPa | 0 mm | - | - | - |
| 1777911846 | 19.44° C | 60% | 1002.8 hPa | 0 mm | - | - | - |
| 1777910946 | 20.56° C | 56% | 1002.6 hPa | 0 mm | - | - | - |
| 1777910046 | 21.67° C | 52% | 1002.6 hPa | 0 mm | - | - | - |
| 1777909146 | 22.78° C | 45% | 1002.4 hPa | 0 mm | - | - | - |
| 1777908246 | 22.78° C | 45% | 1002.2 hPa | 0 mm | - | - | - |
| 1777907346 | 23.89° C | 43% | 1002.2 hPa | 0 mm | - | - | - |
| 1777906446 | 24.44° C | 41% | 1002.1 hPa | 0 mm | - | - | - |
| 1777905546 | 25° C | 39% | 1002.2 hPa | 0 mm | - | - | - |
| 1777904646 | 25.56° C | 38% | 1002.2 hPa | 0 mm | - | - | - |
| 1777903746 | 27.78° C | 35% | 1002 hPa | 0 mm | - | - | - |
| 1777902846 | 26.67° C | 37% | 1002.2 hPa | 0 mm | - | - | - |
| 1777901946 | 26.11° C | 37% | 1002.4 hPa | 0 mm | - | - | - |
| 1777901046 | 27.22° C | 39% | 1002.3 hPa | 0 mm | - | - | - |
| 1777900146 | 25.56° C | 39% | 1002.3 hPa | 0 mm | - | - | - |
| 1777899246 | 25.56° C | 38% | 1002.3 hPa | 0 mm | - | - | - |
| 1777898346 | 26.67° C | 36% | 1002.3 hPa | 0 mm | - | - | - |
| 1777897446 | 27.78° C | 37% | 1002.5 hPa | 0 mm | - | - | - |
| 1777896546 | 27.78° C | 36% | 1002.4 hPa | 0 mm | - | - | - |
| 1777895646 | 27.78° C | 36% | 1002.6 hPa | 0 mm | - | - | - |
| 1777894746 | 27.78° C | 35% | 1002.6 hPa | 0 mm | - | - | - |
| 1777893846 | 28.89° C | 34% | 1002.6 hPa | 0 mm | - | - | - |
| 1777892946 | 26.11° C | 38% | 1002.8 hPa | 0 mm | - | - | - |
* Rain latest hour (hover to see other rain measurements)
** Current wind speed in m/s (hover to see current wind gust speed)